Time;durP1;ratioP1;P1;durP2;ratioP2;P2;SDS_P1;SDS_P2;PMS_P1;PMS_P2;Temp;Humidity;BMP_temperature;BMP_pressure;BME280_temperature;BME280_humidity;BME280_pressure;Samples;Min_cycle;Max_cycle;Signal;HPM_P1;HPM_P2
2022/10/20 00:01:21;;;;;;;2.60;1.30;;;;;;;;;;4494125;28;20047;-58
2022/10/20 00:03:31;;;;;;;1.23;1.13;;;;;;;;;;4492799;28;20073;-58
2022/10/20 00:05:42;;;;;;;1.40;1.02;;;;;;;;;;4494007;28;20118;-58
2022/10/20 00:07:52;;;;;;;1.17;1.00;;;;;;;;;;4492939;28;20493;-58
2022/10/20 00:10:03;;;;;;;1.17;1.08;;;;;;;;;;4493131;28;36290;-58
2022/10/20 00:12:13;;;;;;;1.48;1.20;;;;;;;;;;4493544;28;20035;-57
2022/10/20 00:14:23;;;;;;;1.40;1.10;;;;;;;;;;4493086;28;30064;-58
2022/10/20 00:16:37;;;;;;;1.15;1.00;;;;;;;;;;4494257;28;38501;-58
2022/10/20 00:18:47;;;;;;;1.30;1.20;;;;;;;;;;4492154;28;20042;-58
2022/10/20 00:20:57;;;;;;;1.27;1.17;;;;;;;;;;4493843;28;20042;-58
2022/10/20 00:23:08;;;;;;;1.90;1.17;;;;;;;;;;4493320;28;20038;-57
2022/10/20 00:25:18;;;;;;;0.93;0.93;;;;;;;;;;4493249;28;22936;-58
2022/10/20 00:27:29;;;;;;;1.42;1.30;;;;;;;;;;4491423;28;20312;-57
2022/10/20 00:29:39;;;;;;;1.23;1.13;;;;;;;;;;4493564;28;40185;-59
2022/10/20 00:31:49;;;;;;;1.30;1.20;;;;;;;;;;4495843;28;20042;-58
2022/10/20 00:34:00;;;;;;;1.48;1.20;;;;;;;;;;4491951;28;25114;-58
2022/10/20 00:36:13;;;;;;;1.33;1.23;;;;;;;;;;4493673;28;20597;-58
2022/10/20 00:38:23;;;;;;;1.20;1.10;;;;;;;;;;4508440;28;20654;-58
2022/10/20 00:40:34;;;;;;;1.40;1.30;;;;;;;;;;4494079;28;20117;-58
2022/10/20 00:42:45;;;;;;;1.40;1.30;;;;;;;;;;4492244;28;29290;-58
2022/10/20 00:44:58;;;;;;;1.35;1.20;;;;;;;;;;4496397;28;20038;-58
2022/10/20 00:47:12;;;;;;;1.58;1.30;;;;;;;;;;4499287;28;20053;-58
2022/10/20 00:49:24;;;;;;;1.67;1.45;;;;;;;;;;4498089;28;20035;-58
2022/10/20 00:51:34;;;;;;;1.83;1.30;;;;;;;;;;4495944;28;20026;-58
2022/10/20 00:53:45;;;;;;;1.20;1.10;;;;;;;;;;4491820;28;20452;-58
2022/10/20 00:55:57;;;;;;;1.52;1.40;;;;;;;;;;4500509;28;20029;-58
2022/10/20 00:58:07;;;;;;;2.08;1.45;;;;;;;;;;4491378;28;20034;-58
2022/10/20 01:00:18;;;;;;;1.58;1.48;;;;;;;;;;4492170;28;20777;-58
2022/10/20 01:02:29;;;;;;;1.33;1.23;;;;;;;;;;4491612;28;20038;-58
2022/10/20 01:04:40;;;;;;;1.42;1.33;;;;;;;;;;4492203;28;20141;-58
2022/10/20 01:06:51;;;;;;;1.50;1.40;;;;;;;;;;4491355;28;20041;-59
2022/10/20 01:09:03;;;;;;;1.30;1.20;;;;;;;;;;4494704;28;31652;-58
2022/10/20 01:11:41;;;;;;;1.50;1.38;;;;;;;;;;4489769;28;20125;-58
2022/10/20 01:14:35;;;;;;;1.60;1.50;;;;;;;;;;4491250;28;20030;-58
2022/10/20 01:16:52;;;;;;;1.65;1.40;;;;;;;;;;4484271;28;20050;-59
2022/10/20 01:19:50;;;;;;;1.88;1.60;;;;;;;;;;4500704;28;20042;-58
2022/10/20 01:22:19;;;;;;;1.50;1.40;;;;;;;;;;4491714;28;21077;-58
2022/10/20 01:24:42;;;;;;;2.03;1.45;;;;;;;;;;4492339;28;20593;-58
2022/10/20 01:27:49;;;;;;;1.75;1.50;;;;;;;;;;4493086;28;20042;-58
2022/10/20 01:30:15;;;;;;;1.65;1.55;;;;;;;;;;4407143;29;20036;-59
2022/10/20 01:32:34;;;;;;;1.88;1.55;;;;;;;;;;4408715;29;20040;-58
2022/10/20 01:35:00;;;;;;;1.63;1.50;;;;;;;;;;4435485;28;21046;-58
2022/10/20 01:37:18;;;;;;;1.60;1.43;;;;;;;;;;4495253;28;20111;-59
2022/10/20 01:39:41;;;;;;;1.70;1.60;;;;;;;;;;4492264;28;20269;-59
2022/10/20 01:41:55;;;;;;;1.40;1.30;;;;;;;;;;4494512;28;20112;-59
2022/10/20 01:44:10;;;;;;;1.70;1.60;;;;;;;;;;4477695;28;20045;-59
2022/10/20 01:46:21;;;;;;;1.63;1.52;;;;;;;;;;4499843;28;20137;-58
2022/10/20 01:48:34;;;;;;;1.60;1.50;;;;;;;;;;4495832;28;20046;-58
2022/10/20 01:50:45;;;;;;;1.70;1.60;;;;;;;;;;4499399;28;20205;-59
2022/10/20 01:52:57;;;;;;;1.70;1.60;;;;;;;;;;4490451;28;20558;-59
2022/10/20 01:55:12;;;;;;;2.17;1.60;;;;;;;;;;4489349;28;20085;-58
2022/10/20 01:58:05;;;;;;;1.60;1.35;;;;;;;;;;4503102;28;20598;-59
2022/10/20 02:00:16;;;;;;;1.73;1.63;;;;;;;;;;4482777;28;20030;-59
2022/10/20 02:02:35;;;;;;;1.60;1.50;;;;;;;;;;4483093;28;20030;-59
2022/10/20 02:05:16;;;;;;;1.88;1.67;;;;;;;;;;4490729;28;20047;-58
2022/10/20 02:07:29;;;;;;;1.60;1.50;;;;;;;;;;4491320;28;20059;-59
2022/10/20 02:09:48;;;;;;;1.90;1.70;;;;;;;;;;4505288;28;20045;-59
2022/10/20 02:12:06;;;;;;;2.08;1.58;;;;;;;;;;4489226;28;20042;-58
2022/10/20 02:14:19;;;;;;;1.58;1.30;;;;;;;;;;4494193;28;20822;-58
2022/10/20 02:16:35;;;;;;;1.88;1.60;;;;;;;;;;4491942;28;20642;-59
2022/10/20 02:18:46;;;;;;;2.03;1.67;;;;;;;;;;4489295;28;21276;-59
2022/10/20 02:20:58;;;;;;;2.22;1.60;;;;;;;;;;4489870;28;20033;-59
2022/10/20 02:23:08;;;;;;;1.60;1.50;;;;;;;;;;4495639;28;20037;-59
2022/10/20 02:25:19;;;;;;;1.90;1.63;;;;;;;;;;4492453;28;20049;-59
2022/10/20 02:27:33;;;;;;;1.70;1.48;;;;;;;;;;4491022;28;44725;-59
2022/10/20 02:29:47;;;;;;;1.80;1.52;;;;;;;;;;4498467;28;20602;-59
2022/10/20 02:31:58;;;;;;;2.03;1.77;;;;;;;;;;4483161;28;20049;-59
2022/10/20 02:34:09;;;;;;;1.70;1.50;;;;;;;;;;4505909;28;38804;-59
2022/10/20 02:36:20;;;;;;;2.10;1.70;;;;;;;;;;4478487;28;20039;-59
2022/10/20 02:38:31;;;;;;;1.83;1.60;;;;;;;;;;4497200;28;20550;-58
2022/10/20 02:40:41;;;;;;;1.67;1.58;;;;;;;;;;4497934;28;20034;-59
2022/10/20 02:42:52;;;;;;;1.77;1.50;;;;;;;;;;4497285;28;20034;-59
2022/10/20 02:45:02;;;;;;;1.70;1.60;;;;;;;;;;4497068;28;20133;-59
2022/10/20 02:47:13;;;;;;;1.85;1.65;;;;;;;;;;4502259;28;20812;-58
2022/10/20 02:49:24;;;;;;;1.70;1.60;;;;;;;;;;4499247;28;20484;-58
2022/10/20 02:51:34;;;;;;;1.70;1.60;;;;;;;;;;4498423;28;20116;-59
2022/10/20 02:53:45;;;;;;;1.90;1.60;;;;;;;;;;4498032;28;36933;-59
2022/10/20 02:55:55;;;;;;;1.60;1.50;;;;;;;;;;4496929;28;20465;-59
2022/10/20 02:58:05;;;;;;;1.95;1.77;;;;;;;;;;4495392;28;32157;-58
2022/10/20 03:00:16;;;;;;;1.83;1.63;;;;;;;;;;4497153;28;20049;-59
2022/10/20 03:02:26;;;;;;;1.63;1.52;;;;;;;;;;4497386;28;20038;-59
2022/10/20 03:04:36;;;;;;;2.03;1.80;;;;;;;;;;4498863;28;38671;-59
2022/10/20 03:06:47;;;;;;;1.85;1.67;;;;;;;;;;4496263;28;24265;-59
2022/10/20 03:08:57;;;;;;;1.98;1.70;;;;;;;;;;4497369;28;20057;-59
2022/10/20 03:11:08;;;;;;;1.95;1.75;;;;;;;;;;4497451;28;40324;-58
2022/10/20 03:13:18;;;;;;;2.08;1.80;;;;;;;;;;4496412;28;20062;-59
2022/10/20 03:15:29;;;;;;;2.33;1.60;;;;;;;;;;4497425;28;20432;-59
2022/10/20 03:17:39;;;;;;;1.83;1.60;;;;;;;;;;4496382;28;20151;-58
2022/10/20 03:19:49;;;;;;;1.88;1.65;;;;;;;;;;4486635;28;20041;-59
2022/10/20 03:22:00;;;;;;;1.67;1.45;;;;;;;;;;4495965;28;20054;-58
2022/10/20 03:24:10;;;;;;;2.10;1.80;;;;;;;;;;4495283;28;38838;-59
2022/10/20 03:26:21;;;;;;;3.08;1.88;;;;;;;;;;4495914;28;20088;-59
2022/10/20 03:28:31;;;;;;;1.90;1.70;;;;;;;;;;4495010;28;20042;-59
2022/10/20 03:30:42;;;;;;;2.15;1.70;;;;;;;;;;4496592;28;36323;-59
2022/10/20 03:32:52;;;;;;;2.05;1.85;;;;;;;;;;4500701;28;20092;-59
2022/10/20 03:35:03;;;;;;;1.80;1.70;;;;;;;;;;4497043;28;20036;-58
2022/10/20 03:37:13;;;;;;;1.70;1.60;;;;;;;;;;4496944;28;20497;-58
2022/10/20 03:39:24;;;;;;;1.88;1.67;;;;;;;;;;4493973;28;33650;-58
2022/10/20 03:41:34;;;;;;;1.95;1.75;;;;;;;;;;4493352;28;28475;-59
2022/10/20 03:43:45;;;;;;;2.13;1.92;;;;;;;;;;4493796;28;20120;-58
2022/10/20 03:46:03;;;;;;;1.85;1.70;;;;;;;;;;4493332;28;22088;-58
2022/10/20 03:48:13;;;;;;;1.98;1.77;;;;;;;;;;4493194;28;20663;-58
2022/10/20 03:50:24;;;;;;;2.80;2.08;;;;;;;;;;4494594;28;20056;-59
2022/10/20 03:52:35;;;;;;;2.03;1.88;;;;;;;;;;4493992;28;20558;-58
2022/10/20 03:54:46;;;;;;;2.20;2.00;;;;;;;;;;4493711;28;20042;-58
2022/10/20 03:56:56;;;;;;;3.35;1.95;;;;;;;;;;4493079;28;20035;-58
2022/10/20 03:59:06;;;;;;;2.20;2.00;;;;;;;;;;4492578;28;20724;-58
2022/10/20 04:01:19;;;;;;;2.35;2.15;;;;;;;;;;4494093;28;20034;-58
2022/10/20 04:03:30;;;;;;;2.17;1.98;;;;;;;;;;4494603;28;20627;-60
2022/10/20 04:05:40;;;;;;;2.28;2.08;;;;;;;;;;4492247;28;41878;-58
2022/10/20 04:07:50;;;;;;;2.30;2.10;;;;;;;;;;4493398;28;20042;-58
2022/10/20 04:10:01;;;;;;;2.40;2.20;;;;;;;;;;4492661;28;20038;-58
2022/10/20 04:12:11;;;;;;;2.20;2.00;;;;;;;;;;4493402;28;25832;-59
2022/10/20 04:14:22;;;;;;;2.20;2.00;;;;;;;;;;4492310;28;28725;-59
2022/10/20 04:16:32;;;;;;;2.38;2.17;;;;;;;;;;4493395;28;20038;-58
2022/10/20 04:18:42;;;;;;;2.95;2.10;;;;;;;;;;4494784;28;20061;-58
2022/10/20 04:20:53;;;;;;;2.65;2.15;;;;;;;;;;4493853;28;20101;-58
2022/10/20 04:23:03;;;;;;;2.20;2.00;;;;;;;;;;4495274;28;22055;-58
2022/10/20 04:25:14;;;;;;;2.10;1.90;;;;;;;;;;4492110;28;39064;-58
2022/10/20 04:27:24;;;;;;;2.17;1.98;;;;;;;;;;4492263;28;20392;-58
2022/10/20 04:29:34;;;;;;;2.35;1.98;;;;;;;;;;4492928;28;20101;-58
2022/10/20 04:31:45;;;;;;;2.13;1.92;;;;;;;;;;4492737;28;20049;-58
2022/10/20 04:33:55;;;;;;;2.20;2.00;;;;;;;;;;4495667;28;24958;-59
2022/10/20 04:36:09;;;;;;;2.13;1.70;;;;;;;;;;4491317;28;26420;-58
2022/10/20 04:38:19;;;;;;;2.00;1.80;;;;;;;;;;4491617;28;20034;-58
2022/10/20 04:40:29;;;;;;;2.05;1.70;;;;;;;;;;4500135;28;20504;-58
2022/10/20 04:42:40;;;;;;;2.20;2.00;;;;;;;;;;4493433;28;20124;-59
2022/10/20 04:44:50;;;;;;;2.30;2.00;;;;;;;;;;4495619;28;20044;-58
2022/10/20 04:47:01;;;;;;;1.98;1.77;;;;;;;;;;4493548;28;20261;-58
2022/10/20 04:49:11;;;;;;;2.10;1.90;;;;;;;;;;4494002;28;20467;-59
2022/10/20 04:51:21;;;;;;;2.08;1.80;;;;;;;;;;4490428;28;44827;-58
2022/10/20 04:53:32;;;;;;;1.88;1.70;;;;;;;;;;4492998;28;20042;-58
2022/10/20 04:55:42;;;;;;;2.17;1.75;;;;;;;;;;4493857;28;20033;-58
2022/10/20 04:57:53;;;;;;;2.00;1.70;;;;;;;;;;4493159;28;20048;-58
2022/10/20 05:00:04;;;;;;;2.13;1.92;;;;;;;;;;4492482;28;20077;-58
2022/10/20 05:02:14;;;;;;;2.10;1.88;;;;;;;;;;4491830;28;20045;-58
2022/10/20 05:04:25;;;;;;;1.80;1.70;;;;;;;;;;4492952;28;20027;-58
2022/10/20 05:06:35;;;;;;;1.83;1.70;;;;;;;;;;4484510;28;20066;-59
2022/10/20 05:08:48;;;;;;;2.35;1.67;;;;;;;;;;4491378;28;20038;-60
2022/10/20 05:10:59;;;;;;;2.10;1.90;;;;;;;;;;4491604;28;20072;-58
2022/10/20 05:13:10;;;;;;;1.73;1.63;;;;;;;;;;4491286;28;20984;-58
2022/10/20 05:15:20;;;;;;;2.42;1.92;;;;;;;;;;4492672;28;20034;-58
2022/10/20 05:17:31;;;;;;;1.80;1.70;;;;;;;;;;4493457;28;35900;-58
2022/10/20 05:19:41;;;;;;;2.28;1.90;;;;;;;;;;4491303;28;23800;-58
2022/10/20 05:21:51;;;;;;;1.70;1.60;;;;;;;;;;4492306;28;38984;-58
2022/10/20 05:24:03;;;;;;;1.80;1.70;;;;;;;;;;4498408;28;39187;-58
2022/10/20 05:26:16;;;;;;;1.80;1.70;;;;;;;;;;4507475;28;20041;-58
2022/10/20 05:28:26;;;;;;;2.03;1.85;;;;;;;;;;4490956;28;20062;-58
2022/10/20 05:30:37;;;;;;;2.30;2.00;;;;;;;;;;4492036;28;20124;-58
2022/10/20 05:32:47;;;;;;;2.67;1.80;;;;;;;;;;4494360;28;20049;-58
2022/10/20 05:34:57;;;;;;;2.20;2.00;;;;;;;;;;4492052;28;34339;-58
2022/10/20 05:37:08;;;;;;;2.00;1.80;;;;;;;;;;4490877;28;35879;-58
2022/10/20 05:39:18;;;;;;;2.17;1.95;;;;;;;;;;4491777;28;20123;-58
2022/10/20 05:41:30;;;;;;;2.50;1.70;;;;;;;;;;4492054;28;20045;-58
2022/10/20 05:43:41;;;;;;;1.85;1.75;;;;;;;;;;4489740;28;20026;-59
2022/10/20 05:45:54;;;;;;;1.98;1.67;;;;;;;;;;4494308;28;20054;-59
2022/10/20 05:48:05;;;;;;;2.65;1.90;;;;;;;;;;4492746;28;20641;-60
2022/10/20 05:50:15;;;;;;;1.90;1.80;;;;;;;;;;4491885;28;20675;-59
2022/10/20 05:52:26;;;;;;;1.90;1.80;;;;;;;;;;4492935;28;20109;-59
2022/10/20 05:54:36;;;;;;;1.98;1.80;;;;;;;;;;4491748;28;30448;-59
2022/10/20 05:56:47;;;;;;;1.92;1.70;;;;;;;;;;4492926;28;20045;-59
2022/10/20 05:58:57;;;;;;;2.08;1.70;;;;;;;;;;4491281;28;20105;-59
2022/10/20 06:01:19;;;;;;;2.15;1.70;;;;;;;;;;4491445;28;20034;-59
2022/10/20 06:03:30;;;;;;;2.42;1.90;;;;;;;;;;4490552;28;20042;-59
2022/10/20 06:05:40;;;;;;;2.83;1.90;;;;;;;;;;4493260;28;20050;-59
2022/10/20 06:07:53;;;;;;;2.17;1.98;;;;;;;;;;4491477;28;26006;-59
2022/10/20 06:10:03;;;;;;;2.10;1.90;;;;;;;;;;4489740;28;20422;-59
2022/10/20 06:12:14;;;;;;;2.22;1.92;;;;;;;;;;4491471;28;20045;-59
2022/10/20 06:14:24;;;;;;;2.10;1.80;;;;;;;;;;4492337;28;20080;-59
2022/10/20 06:16:35;;;;;;;2.00;1.80;;;;;;;;;;4491167;28;20069;-59
2022/10/20 06:18:46;;;;;;;2.85;1.83;;;;;;;;;;4500336;28;20613;-59
2022/10/20 06:21:04;;;;;;;1.95;1.73;;;;;;;;;;4489089;28;30686;-59
2022/10/20 06:23:24;;;;;;;2.20;1.73;;;;;;;;;;4493232;28;20756;-58
2022/10/20 06:25:34;;;;;;;2.55;2.00;;;;;;;;;;4499024;28;20116;-59
2022/10/20 06:27:44;;;;;;;2.13;1.92;;;;;;;;;;4491785;28;20440;-59
2022/10/20 06:37:00;;;;;;;2.50;2.08;;;;;;;;;;4486194;28;20070;-59
2022/10/20 06:39:14;;;;;;;2.22;1.98;;;;;;;;;;4486439;28;29650;-59
2022/10/20 06:41:27;;;;;;;2.00;1.80;;;;;;;;;;4488979;28;20069;-59
2022/10/20 06:43:37;;;;;;;2.20;2.00;;;;;;;;;;4487376;28;20041;-59
2022/10/20 06:46:02;;;;;;;2.63;1.83;;;;;;;;;;4495950;28;20618;-60
2022/10/20 06:48:12;;;;;;;2.17;1.98;;;;;;;;;;4488330;28;20941;-59
2022/10/20 06:50:23;;;;;;;2.10;1.90;;;;;;;;;;4487869;28;21813;-59
2022/10/20 06:52:33;;;;;;;2.20;2.00;;;;;;;;;;4488170;28;20168;-59
2022/10/20 07:01:47;;;;;;;2.35;2.00;;;;;;;;;;4487242;28;20038;-59
2022/10/20 07:04:00;;;;;;;2.35;1.95;;;;;;;;;;4497470;28;20038;-59
2022/10/20 07:06:25;;;;;;;2.15;1.90;;;;;;;;;;4491163;28;20074;-59
2022/10/20 07:08:35;;;;;;;2.22;1.90;;;;;;;;;;4489354;28;20041;-59
2022/10/20 07:10:46;;;;;;;1.98;1.70;;;;;;;;;;4488559;28;20042;-60
2022/10/20 07:12:56;;;;;;;2.03;1.73;;;;;;;;;;4490052;28;21007;-59
2022/10/20 07:15:07;;;;;;;2.05;1.85;;;;;;;;;;4491249;28;28504;-60
2022/10/20 07:17:17;;;;;;;2.42;1.92;;;;;;;;;;4491708;28;20029;-60
2022/10/20 07:19:29;;;;;;;2.17;1.80;;;;;;;;;;4493211;28;20038;-59
2022/10/20 07:28:47;;;;;;;1.80;1.63;;;;;;;;;;4490448;28;20042;-60
2022/10/20 07:31:03;;;;;;;1.98;1.77;;;;;;;;;;4491323;28;20073;-59
2022/10/20 07:33:13;;;;;;;1.95;1.80;;;;;;;;;;4489379;28;21158;-59
2022/10/20 07:35:24;;;;;;;1.83;1.70;;;;;;;;;;4489149;28;20034;-60
2022/10/20 07:37:54;;;;;;;2.05;1.80;;;;;;;;;;4489966;28;20060;-59
2022/10/20 07:40:05;;;;;;;2.17;1.90;;;;;;;;;;4466236;28;21686;-59
2022/10/20 07:42:15;;;;;;;2.28;2.00;;;;;;;;;;4489575;28;20134;-60
2022/10/20 07:44:26;;;;;;;1.92;1.73;;;;;;;;;;4488127;28;36070;-59
2022/10/20 07:46:36;;;;;;;2.10;1.90;;;;;;;;;;4491452;28;20100;-60
2022/10/20 07:48:46;;;;;;;2.10;1.67;;;;;;;;;;4489732;28;20068;-60
2022/10/20 07:51:20;;;;;;;2.42;1.90;;;;;;;;;;4489929;28;20132;-61
2022/10/20 07:53:30;;;;;;;2.10;1.90;;;;;;;;;;4489519;28;20054;-60
2022/10/20 07:55:41;;;;;;;2.97;1.98;;;;;;;;;;4489699;28;20030;-60
2022/10/20 07:57:51;;;;;;;1.98;1.77;;;;;;;;;;4491629;28;20041;-60
2022/10/20 08:00:02;;;;;;;2.22;2.00;;;;;;;;;;4488079;28;20049;-60
2022/10/20 08:02:22;;;;;;;2.70;2.30;;;;;;;;;;4489419;28;20043;-61
2022/10/20 08:04:32;;;;;;;3.13;2.10;;;;;;;;;;4490778;28;20039;-61
2022/10/20 08:06:45;;;;;;;2.53;2.20;;;;;;;;;;4489888;28;20023;-61
2022/10/20 08:08:55;;;;;;;2.30;2.08;;;;;;;;;;4489241;28;20583;-61
2022/10/20 08:11:06;;;;;;;2.45;2.20;;;;;;;;;;4498213;28;20101;-62
2022/10/20 08:13:17;;;;;;;2.70;2.20;;;;;;;;;;4489998;28;20053;-62
2022/10/20 08:15:27;;;;;;;2.58;2.15;;;;;;;;;;4490767;28;24060;-61
2022/10/20 08:17:38;;;;;;;3.63;2.20;;;;;;;;;;4490347;28;34355;-60
2022/10/20 08:19:48;;;;;;;2.53;2.22;;;;;;;;;;4490641;28;21437;-61
2022/10/20 08:29:46;;;;;;;2.97;2.40;;;;;;;;;;4488053;28;20034;-63
2022/10/20 08:31:57;;;;;;;2.80;2.30;;;;;;;;;;4498615;28;20037;-61
2022/10/20 08:34:07;;;;;;;2.67;2.30;;;;;;;;;;4489168;28;29585;-60
2022/10/20 08:37:03;;;;;;;2.45;2.10;;;;;;;;;;4497670;28;20137;-60
2022/10/20 08:39:14;;;;;;;2.55;2.20;;;;;;;;;;4499593;28;20518;-60
2022/10/20 08:41:29;;;;;;;2.65;2.20;;;;;;;;;;4488985;28;20039;-61
2022/10/20 08:43:39;;;;;;;3.40;2.30;;;;;;;;;;4488851;28;20054;-60
2022/10/20 08:45:50;;;;;;;3.10;2.40;;;;;;;;;;4490890;28;20081;-70
2022/10/20 08:48:01;;;;;;;2.83;2.28;;;;;;;;;;4490266;28;20038;-70
2022/10/20 08:50:16;;;;;;;3.17;2.22;;;;;;;;;;4491376;28;20521;-69
2022/10/20 08:52:27;;;;;;;2.30;2.10;;;;;;;;;;4490131;28;20037;-69
2022/10/20 08:54:37;;;;;;;3.05;2.42;;;;;;;;;;4488933;28;22001;-69
2022/10/20 08:56:48;;;;;;;2.40;2.13;;;;;;;;;;4498175;28;20535;-61
2022/10/20 08:58:59;;;;;;;2.58;2.17;;;;;;;;;;4490073;28;20042;-60
2022/10/20 09:01:25;;;;;;;2.70;2.40;;;;;;;;;;4490298;28;20598;-61
2022/10/20 09:03:35;;;;;;;2.63;2.13;;;;;;;;;;4489900;28;20038;-61
2022/10/20 09:05:50;;;;;;;3.72;2.20;;;;;;;;;;4490293;28;20085;-61
2022/10/20 09:08:01;;;;;;;3.05;2.45;;;;;;;;;;4489844;28;21020;-61
2022/10/20 09:10:37;;;;;;;2.60;2.20;;;;;;;;;;4491491;28;20043;-61
2022/10/20 09:12:48;;;;;;;2.15;1.95;;;;;;;;;;4490847;28;20085;-61
2022/10/20 09:14:59;;;;;;;2.42;2.22;;;;;;;;;;4500254;28;20041;-61
2022/10/20 09:17:16;;;;;;;2.25;2.05;;;;;;;;;;4497493;28;20116;-61
2022/10/20 09:19:27;;;;;;;3.10;2.17;;;;;;;;;;4497417;28;20057;-61
2022/10/20 09:21:37;;;;;;;2.53;2.15;;;;;;;;;;4490305;28;20045;-61
2022/10/20 09:23:51;;;;;;;2.50;2.00;;;;;;;;;;4491463;28;20034;-61
2022/10/20 09:26:02;;;;;;;2.20;2.00;;;;;;;;;;4498035;28;20057;-61
2022/10/20 09:28:21;;;;;;;2.17;1.85;;;;;;;;;;4490009;28;20073;-61
2022/10/20 09:30:34;;;;;;;2.30;1.90;;;;;;;;;;4489634;28;20042;-61
2022/10/20 09:32:45;;;;;;;2.13;1.92;;;;;;;;;;4491493;28;20038;-61
2022/10/20 09:35:16;;;;;;;2.50;2.10;;;;;;;;;;4489676;28;20042;-61
2022/10/20 09:37:27;;;;;;;3.10;2.17;;;;;;;;;;4488928;28;20041;-61
2022/10/20 09:39:55;;;;;;;2.25;1.98;;;;;;;;;;4488297;28;31895;-61
2022/10/20 09:42:18;;;;;;;2.33;1.98;;;;;;;;;;4481378;28;20042;-62
2022/10/20 09:44:31;;;;;;;2.28;1.73;;;;;;;;;;4497733;28;21428;-61
2022/10/20 09:46:47;;;;;;;2.70;2.10;;;;;;;;;;4490320;28;20638;-60
2022/10/20 09:48:58;;;;;;;2.38;2.00;;;;;;;;;;4491103;28;20686;-61
2022/10/20 09:51:13;;;;;;;1.95;1.70;;;;;;;;;;4489132;28;20165;-61
2022/10/20 09:53:29;;;;;;;1.95;1.70;;;;;;;;;;4489284;28;20078;-60
2022/10/20 09:55:45;;;;;;;1.95;1.75;;;;;;;;;;4471897;28;20628;-61
2022/10/20 09:57:57;;;;;;;2.47;1.88;;;;;;;;;;4492880;28;20627;-61
2022/10/20 10:00:30;;;;;;;2.30;1.90;;;;;;;;;;4487549;28;20040;-61
2022/10/20 10:02:41;;;;;;;3.28;1.90;;;;;;;;;;4488929;28;20209;-61
2022/10/20 10:04:53;;;;;;;2.65;2.10;;;;;;;;;;4489285;28;20882;-61
2022/10/20 10:07:08;;;;;;;2.30;1.88;;;;;;;;;;4490195;28;20050;-61
2022/10/20 10:09:36;;;;;;;2.58;1.70;;;;;;;;;;4504711;28;20033;-60
2022/10/20 10:11:56;;;;;;;1.98;1.77;;;;;;;;;;4487332;28;20037;-59
2022/10/20 10:14:20;;;;;;;2.03;1.83;;;;;;;;;;4490496;28;20046;-61
2022/10/20 10:16:41;;;;;;;3.22;2.00;;;;;;;;;;4475896;28;20042;-60
2022/10/20 10:19:00;;;;;;;2.53;1.92;;;;;;;;;;4493197;28;20032;-61
2022/10/20 10:21:14;;;;;;;2.17;1.63;;;;;;;;;;4490103;28;21263;-60
2022/10/20 10:23:26;;;;;;;2.28;1.80;;;;;;;;;;4488250;28;20133;-60
2022/10/20 10:25:36;;;;;;;2.28;1.70;;;;;;;;;;4489612;28;20046;-60
2022/10/20 10:28:05;;;;;;;1.95;1.70;;;;;;;;;;4489082;28;20039;-60
2022/10/20 10:30:27;;;;;;;2.42;1.90;;;;;;;;;;4488940;28;20046;-60
2022/10/20 10:32:42;;;;;;;2.47;1.90;;;;;;;;;;4489358;28;20206;-60
2022/10/20 10:35:08;;;;;;;2.53;1.73;;;;;;;;;;4488987;28;20030;-60
2022/10/20 10:37:19;;;;;;;1.88;1.63;;;;;;;;;;4489388;28;20041;-60
2022/10/20 10:39:33;;;;;;;2.08;1.67;;;;;;;;;;4490893;28;20077;-60
2022/10/20 10:42:02;;;;;;;1.88;1.60;;;;;;;;;;4493545;28;20038;-60
2022/10/20 10:44:27;;;;;;;2.92;1.90;;;;;;;;;;4494581;28;20034;-61
2022/10/20 10:46:42;;;;;;;2.20;2.00;;;;;;;;;;4490598;28;20042;-60
2022/10/20 10:48:52;;;;;;;2.03;1.83;;;;;;;;;;4490089;28;20061;-61
2022/10/20 10:51:10;;;;;;;2.40;1.80;;;;;;;;;;4492594;28;20141;-60
2022/10/20 10:53:40;;;;;;;2.60;1.90;;;;;;;;;;4493692;28;20103;-61
2022/10/20 10:55:57;;;;;;;2.47;1.95;;;;;;;;;;4492605;28;20081;-60
2022/10/20 10:58:10;;;;;;;2.55;2.00;;;;;;;;;;4491576;28;20038;-60
2022/10/20 11:00:41;;;;;;;2.30;2.00;;;;;;;;;;4491284;28;20038;-60
2022/10/20 11:03:30;;;;;;;2.78;2.15;;;;;;;;;;4495558;28;20035;-60
2022/10/20 11:06:03;;;;;;;3.17;1.90;;;;;;;;;;4491509;28;20118;-59
2022/10/20 11:08:24;;;;;;;2.70;1.73;;;;;;;;;;4495232;28;20061;-60
2022/10/20 11:10:49;;;;;;;2.65;1.92;;;;;;;;;;4490248;28;20100;-61
2022/10/20 11:13:38;;;;;;;2.22;1.88;;;;;;;;;;4475058;28;20545;-63
2022/10/20 11:15:57;;;;;;;;;;;;;;;;;;4465942;28;20050;-60
2022/10/20 11:18:27;;;;;;;2.67;1.70;;;;;;;;;;4492410;28;20446;-60
2022/10/20 11:21:00;;;;;;;2.10;1.80;;;;;;;;;;4500952;28;20038;-60
2022/10/20 11:23:26;;;;;;;1.98;1.77;;;;;;;;;;4490859;28;20203;-60
2022/10/20 11:25:43;;;;;;;2.10;1.60;;;;;;;;;;4491738;28;20054;-61
2022/10/20 11:27:55;;;;;;;2.67;2.05;;;;;;;;;;4493966;28;20329;-60
2022/10/20 11:30:18;;;;;;;1.95;1.70;;;;;;;;;;4475562;28;20039;-61
2022/10/20 11:32:38;;;;;;;2.28;1.90;;;;;;;;;;4489316;28;20038;-60
2022/10/20 11:34:56;;;;;;;2.00;1.80;;;;;;;;;;4492206;28;20116;-60
2022/10/20 11:37:42;;;;;;;2.22;1.83;;;;;;;;;;4491449;28;20575;-60
2022/10/20 11:40:04;;;;;;;3.00;2.20;;;;;;;;;;4491445;28;20516;-60
2022/10/20 11:42:30;;;;;;;2.20;2.00;;;;;;;;;;4496008;28;20046;-60
2022/10/20 11:44:43;;;;;;;2.47;2.10;;;;;;;;;;4496318;28;20408;-60
2022/10/20 11:46:57;;;;;;;2.10;1.90;;;;;;;;;;4495485;28;20134;-60
2022/10/20 11:49:11;;;;;;;2.47;1.90;;;;;;;;;;4476561;28;20618;-60
2022/10/20 11:51:30;;;;;;;2.30;1.92;;;;;;;;;;4505927;28;20037;-60
2022/10/20 11:53:58;;;;;;;3.42;2.38;;;;;;;;;;4489754;28;20035;-60
2022/10/20 11:56:27;;;;;;;2.90;2.17;;;;;;;;;;4491897;28;20049;-60
2022/10/20 11:59:01;;;;;;;3.22;2.20;;;;;;;;;;4484186;28;20676;-60
2022/10/20 12:01:20;;;;;;;3.28;2.28;;;;;;;;;;4489652;28;20131;-60
2022/10/20 12:03:49;;;;;;;2.55;2.03;;;;;;;;;;4483064;28;20476;-60
2022/10/20 12:06:15;;;;;;;2.30;1.90;;;;;;;;;;4500727;28;20048;-60
2022/10/20 12:08:34;;;;;;;2.65;2.10;;;;;;;;;;4490584;28;20104;-60
2022/10/20 12:11:07;;;;;;;2.72;2.17;;;;;;;;;;4491521;28;20621;-60
2022/10/20 12:13:39;;;;;;;2.88;2.00;;;;;;;;;;4492060;28;20037;-59
2022/10/20 12:15:51;;;;;;;2.42;2.05;;;;;;;;;;4490478;28;20041;-60
2022/10/20 12:18:05;;;;;;;2.17;1.98;;;;;;;;;;4491393;28;20038;-59
2022/10/20 12:20:39;;;;;;;2.35;2.00;;;;;;;;;;4489507;28;20105;-60
2022/10/20 12:22:51;;;;;;;2.70;2.30;;;;;;;;;;4489707;28;20072;-60
2022/10/20 12:25:01;;;;;;;2.13;1.92;;;;;;;;;;4498623;28;20583;-60
2022/10/20 12:27:16;;;;;;;3.05;2.20;;;;;;;;;;4490200;28;20039;-60
2022/10/20 12:29:30;;;;;;;2.38;2.10;;;;;;;;;;4495590;28;20042;-60
2022/10/20 12:32:24;;;;;;;2.35;2.08;;;;;;;;;;4493299;28;20497;-60
2022/10/20 12:34:41;;;;;;;2.70;2.10;;;;;;;;;;4499290;28;20038;-60
2022/10/20 12:37:06;;;;;;;4.20;2.40;;;;;;;;;;4493323;28;20030;-60
2022/10/20 12:39:20;;;;;;;2.65;2.30;;;;;;;;;;4490087;28;20601;-60
2022/10/20 12:41:35;;;;;;;2.90;2.00;;;;;;;;;;4490124;28;20084;-60
2022/10/20 12:43:52;;;;;;;2.10;1.90;;;;;;;;;;4498427;28;20287;-60
2022/10/20 12:46:06;;;;;;;2.63;2.20;;;;;;;;;;4489522;28;20137;-60
2022/10/20 12:48:21;;;;;;;2.35;1.95;;;;;;;;;;4497868;28;20045;-60
2022/10/20 12:50:36;;;;;;;2.63;2.17;;;;;;;;;;4492403;28;20755;-60
2022/10/20 12:52:46;;;;;;;2.67;2.20;;;;;;;;;;4492653;28;20129;-60
2022/10/20 12:55:13;;;;;;;2.55;2.28;;;;;;;;;;4491044;28;29546;-60
2022/10/20 12:57:30;;;;;;;2.35;1.90;;;;;;;;;;4498503;28;20029;-60
2022/10/20 12:59:40;;;;;;;2.20;1.92;;;;;;;;;;4504083;28;20041;-60
2022/10/20 13:02:09;;;;;;;2.70;2.30;;;;;;;;;;4489100;28;21009;-60
2022/10/20 13:04:56;;;;;;;3.17;2.30;;;;;;;;;;4490378;28;20030;-59
2022/10/20 13:07:07;;;;;;;2.20;2.00;;;;;;;;;;4490892;28;20039;-60
2022/10/20 13:09:20;;;;;;;2.67;2.25;;;;;;;;;;4490689;28;20124;-60
2022/10/20 13:11:37;;;;;;;3.40;2.50;;;;;;;;;;4481081;28;20129;-60
2022/10/20 13:13:55;;;;;;;3.50;2.50;;;;;;;;;;4489225;28;20598;-60
2022/10/20 13:16:14;;;;;;;2.70;2.10;;;;;;;;;;4493374;28;20044;-61
2022/10/20 13:18:32;;;;;;;2.55;2.28;;;;;;;;;;4493355;28;20080;-60
2022/10/20 13:20:55;;;;;;;2.60;2.40;;;;;;;;;;4497846;28;20037;-60
2022/10/20 13:23:09;;;;;;;3.58;2.28;;;;;;;;;;4488615;28;20160;-60
2022/10/20 13:25:26;;;;;;;2.80;2.47;;;;;;;;;;4492178;28;20710;-61
2022/10/20 13:27:37;;;;;;;3.25;2.63;;;;;;;;;;4490239;28;20034;-60
2022/10/20 13:29:47;;;;;;;2.67;2.35;;;;;;;;;;4490770;28;20038;-60
2022/10/20 13:32:08;;;;;;;2.80;2.55;;;;;;;;;;4490086;28;20070;-60
2022/10/20 13:34:21;;;;;;;2.40;2.20;;;;;;;;;;4498476;28;20022;-60
2022/10/20 13:37:01;;;;;;;3.28;2.60;;;;;;;;;;4490207;28;20069;-60
2022/10/20 13:39:23;;;;;;;2.97;2.67;;;;;;;;;;4466867;28;20042;-59
2022/10/20 13:41:43;;;;;;;3.20;2.38;;;;;;;;;;4489846;28;20082;-60
2022/10/20 13:44:01;;;;;;;2.85;2.53;;;;;;;;;;4492858;28;20053;-60
2022/10/20 13:46:44;;;;;;;2.55;2.20;;;;;;;;;;4489670;28;20775;-59
2022/10/20 13:49:37;;;;;;;2.78;2.45;;;;;;;;;;4479155;28;20050;-60
2022/10/20 13:51:53;;;;;;;3.10;2.70;;;;;;;;;;4445683;28;20159;-60
2022/10/20 13:54:05;;;;;;;3.83;2.63;;;;;;;;;;4462386;28;20125;-60
2022/10/20 13:56:15;;;;;;;3.03;2.55;;;;;;;;;;4468374;28;20050;-58
2022/10/20 13:58:26;;;;;;;3.00;2.55;;;;;;;;;;4490429;28;20042;-58
2022/10/20 14:00:36;;;;;;;2.88;2.50;;;;;;;;;;4488839;28;20044;-60
2022/10/20 14:02:56;;;;;;;3.38;2.47;;;;;;;;;;4488698;28;20034;-60